Time;durP1;ratioP1;P1;durP2;ratioP2;P2;SDS_P1;SDS_P2;PMS_P1;PMS_P2;Temp;Humidity;BMP_temperature;BMP_pressure;BME280_temperature;BME280_humidity;BME280_pressure;Samples;Min_cycle;Max_cycle;Signal;HPM_P1;HPM_P2
2021/03/16 00:00:58;;;;;;;25.67;9.02;;;;;;;;;;5011205;28;20037;-53
2021/03/16 00:03:24;;;;;;;28.33;8.90;;;;;;;;;;5011274;28;20041;-54
2021/03/16 00:05:50;;;;;;;22.38;8.15;;;;;;;;;;4993469;28;20380;-57
2021/03/16 00:08:16;;;;;;;26.38;9.57;;;;;;;;;;5010433;28;20029;-59
2021/03/16 00:10:42;;;;;;;25.90;8.95;;;;;;;;;;5010987;28;20109;-55
2021/03/16 00:13:08;;;;;;;26.45;9.82;;;;;;;;;;5011027;28;20026;-53
2021/03/16 00:15:34;;;;;;;23.30;9.85;;;;;;;;;;5011642;28;20104;-56
2021/03/16 00:18:02;;;;;;;21.23;8.50;;;;;;;;;;4993626;28;20149;-55
2021/03/16 00:20:28;;;;;;;23.48;10.30;;;;;;;;;;5011482;28;20481;-54
2021/03/16 00:22:54;;;;;;;24.70;9.85;;;;;;;;;;5012217;28;20021;-53
2021/03/16 00:25:20;;;;;;;25.58;9.73;;;;;;;;;;5011279;28;20492;-54
2021/03/16 00:27:46;;;;;;;20.88;9.18;;;;;;;;;;4994443;28;20029;-56
2021/03/16 00:30:12;;;;;;;20.15;8.63;;;;;;;;;;5012516;28;20029;-53
2021/03/16 00:32:39;;;;;;;24.60;10.35;;;;;;;;;;4994774;28;20032;-57
2021/03/16 00:35:05;;;;;;;30.95;9.15;;;;;;;;;;5012448;28;20401;-58
2021/03/16 00:37:32;;;;;;;29.73;11.27;;;;;;;;;;5012677;28;20534;-52
2021/03/16 00:39:58;;;;;;;21.48;8.95;;;;;;;;;;5014010;28;20030;-54
2021/03/16 00:42:24;;;;;;;22.65;8.80;;;;;;;;;;5013792;28;20033;-55
2021/03/16 00:44:50;;;;;;;22.85;9.65;;;;;;;;;;5013743;28;20030;-55
2021/03/16 00:47:16;;;;;;;23.42;10.23;;;;;;;;;;4996116;28;20018;-55
2021/03/16 00:49:42;;;;;;;26.33;9.90;;;;;;;;;;5013822;28;20079;-53
2021/03/16 00:52:08;;;;;;;21.50;8.43;;;;;;;;;;5013754;28;20033;-56
2021/03/16 00:54:34;;;;;;;20.42;8.43;;;;;;;;;;5013889;28;20033;-56
2021/03/16 00:57:00;;;;;;;22.00;8.43;;;;;;;;;;5012668;28;20026;-56
2021/03/16 00:59:26;;;;;;;22.85;8.23;;;;;;;;;;5038606;23;20345;-64
2021/03/16 01:01:54;;;;;;;22.52;9.98;;;;;;;;;;5014082;28;20040;-65
2021/03/16 01:04:21;;;;;;;24.33;8.63;;;;;;;;;;5014251;28;20053;-64
2021/03/16 01:06:47;;;;;;;24.40;8.48;;;;;;;;;;5030987;28;20085;-64
2021/03/16 01:09:13;;;;;;;21.40;8.57;;;;;;;;;;5013947;28;20518;-65
2021/03/16 01:11:39;;;;;;;21.75;8.35;;;;;;;;;;5031727;28;20104;-64
2021/03/16 01:14:06;;;;;;;28.42;8.60;;;;;;;;;;5013924;28;20449;-64
2021/03/16 01:16:32;;;;;;;22.02;9.23;;;;;;;;;;5031054;28;20026;-64
2021/03/16 01:18:58;;;;;;;17.75;7.68;;;;;;;;;;5014328;28;20083;-65
2021/03/16 01:21:24;;;;;;;31.15;9.88;;;;;;;;;;5013431;28;20068;-64
2021/03/16 01:23:50;;;;;;;27.52;8.68;;;;;;;;;;5031628;28;20021;-64
2021/03/16 01:26:16;;;;;;;30.77;11.20;;;;;;;;;;5013164;28;20033;-65
2021/03/16 01:28:42;;;;;;;21.85;8.98;;;;;;;;;;5013820;28;20075;-65
2021/03/16 01:31:08;;;;;;;18.77;8.38;;;;;;;;;;5031428;28;20480;-65
2021/03/16 01:33:34;;;;;;;18.27;8.20;;;;;;;;;;5013712;28;20036;-65
2021/03/16 01:36:00;;;;;;;26.35;10.32;;;;;;;;;;5030968;28;20052;-64
2021/03/16 01:38:26;;;;;;;22.42;8.40;;;;;;;;;;5030957;28;20061;-65
2021/03/16 01:40:52;;;;;;;24.60;8.82;;;;;;;;;;5031317;28;20079;-64
2021/03/16 01:43:19;;;;;;;24.35;8.68;;;;;;;;;;5031346;28;20447;-65
2021/03/16 01:45:46;;;;;;;25.48;8.30;;;;;;;;;;5031279;28;20109;-64
2021/03/16 01:48:12;;;;;;;23.58;8.50;;;;;;;;;;5031023;28;20481;-64
2021/03/16 01:50:40;;;;;;;23.08;8.57;;;;;;;;;;5013448;28;20041;-64
2021/03/16 01:53:07;;;;;;;22.58;7.82;;;;;;;;;;5013446;28;20018;-64
2021/03/16 01:55:34;;;;;;;31.98;9.32;;;;;;;;;;5031087;28;20116;-67
2021/03/16 01:58:00;;;;;;;34.83;11.25;;;;;;;;;;5030430;28;20029;-65
2021/03/16 02:00:30;;;;;;;21.95;8.82;;;;;;;;;;5012900;28;20070;-65
2021/03/16 02:02:57;;;;;;;19.50;8.32;;;;;;;;;;5030982;28;20053;-65
2021/03/16 02:05:23;;;;;;;22.30;8.50;;;;;;;;;;5030902;28;20021;-64
2021/03/16 02:08:07;;;;;;;28.52;10.25;;;;;;;;;;5030458;28;20444;-65
2021/03/16 02:10:39;;;;;;;21.48;8.95;;;;;;;;;;5030908;28;20022;-65
2021/03/16 02:13:06;;;;;;;20.85;8.60;;;;;;;;;;5030945;28;20408;-66
2021/03/16 02:15:37;;;;;;;27.27;8.80;;;;;;;;;;5030829;28;20493;-65
2021/03/16 02:18:07;;;;;;;23.60;8.52;;;;;;;;;;5030339;28;20017;-63
2021/03/16 02:20:54;;;;;;;29.20;10.98;;;;;;;;;;5030816;28;20478;-67
2021/03/16 02:23:25;;;;;;;19.98;8.40;;;;;;;;;;5030819;28;20026;-65
2021/03/16 02:25:51;;;;;;;19.58;8.40;;;;;;;;;;5030772;28;20030;-65
2021/03/16 02:28:17;;;;;;;24.55;8.93;;;;;;;;;;5012677;28;20036;-65
2021/03/16 02:30:45;;;;;;;22.15;9.45;;;;;;;;;;5013057;28;20117;-64
2021/03/16 02:33:12;;;;;;;21.35;8.15;;;;;;;;;;5013049;28;20036;-64
2021/03/16 02:35:39;;;;;;;23.15;8.95;;;;;;;;;;5031130;28;20108;-65
2021/03/16 02:38:07;;;;;;;31.33;8.82;;;;;;;;;;5011794;28;20033;-65
2021/03/16 02:40:35;;;;;;;23.67;9.10;;;;;;;;;;5030681;28;20082;-65
2021/03/16 02:43:04;;;;;;;22.85;9.75;;;;;;;;;;5030627;28;20032;-65
2021/03/16 02:45:31;;;;;;;24.33;8.93;;;;;;;;;;5030413;28;20071;-65
2021/03/16 02:47:58;;;;;;;25.88;9.82;;;;;;;;;;5029994;28;20025;-63
2021/03/16 02:50:25;;;;;;;22.23;8.10;;;;;;;;;;5030477;28;20124;-66
2021/03/16 02:52:52;;;;;;;30.88;10.73;;;;;;;;;;5030571;28;20386;-65
2021/03/16 02:55:18;;;;;;;24.70;8.23;;;;;;;;;;5030575;28;20048;-64
2021/03/16 02:57:45;;;;;;;30.95;9.93;;;;;;;;;;5012169;28;20452;-65
2021/03/16 03:00:11;;;;;;;27.73;8.73;;;;;;;;;;5030174;28;20025;-65
2021/03/16 03:02:39;;;;;;;23.88;8.65;;;;;;;;;;5012723;28;20025;-64
2021/03/16 03:05:06;;;;;;;25.58;10.15;;;;;;;;;;5012771;28;20029;-65
2021/03/16 03:07:33;;;;;;;22.58;10.45;;;;;;;;;;5029687;28;20090;-64
2021/03/16 03:09:59;;;;;;;26.70;9.45;;;;;;;;;;5030489;28;20022;-64
2021/03/16 03:12:25;;;;;;;21.67;8.27;;;;;;;;;;5011583;28;20029;-63
2021/03/16 03:14:51;;;;;;;24.20;8.27;;;;;;;;;;5011752;28;20025;-65
2021/03/16 03:17:17;;;;;;;19.95;8.98;;;;;;;;;;5011758;28;20028;-64
2021/03/16 03:19:43;;;;;;;26.45;9.73;;;;;;;;;;5014568;28;20443;-64
2021/03/16 03:22:21;;;;;;;19.75;8.07;;;;;;;;;;5033696;28;20029;-65
2021/03/16 03:24:49;;;;;;;21.33;8.23;;;;;;;;;;5033851;28;20022;-66
2021/03/16 03:27:21;;;;;;;23.90;9.40;;;;;;;;;;5015415;28;20029;-65
2021/03/16 03:29:47;;;;;;;23.88;10.18;;;;;;;;;;5033493;28;20025;-66
2021/03/16 03:32:15;;;;;;;22.20;8.70;;;;;;;;;;5015716;28;20120;-65
2021/03/16 03:34:41;;;;;;;21.20;8.68;;;;;;;;;;5033589;28;20031;-65
2021/03/16 03:37:09;;;;;;;18.95;8.63;;;;;;;;;;5032854;28;20082;-63
2021/03/16 03:39:36;;;;;;;21.83;8.02;;;;;;;;;;5033343;28;20507;-65
2021/03/16 03:42:03;;;;;;;23.92;8.95;;;;;;;;;;5015606;28;20465;-65
2021/03/16 03:44:29;;;;;;;23.45;8.13;;;;;;;;;;5015612;28;20026;-68
2021/03/16 03:46:56;;;;;;;24.05;8.13;;;;;;;;;;5015084;28;20028;-65
2021/03/16 03:49:23;;;;;;;19.48;8.90;;;;;;;;;;5015336;28;20093;-66
2021/03/16 03:51:50;;;;;;;20.38;7.85;;;;;;;;;;5033208;28;20647;-64
2021/03/16 03:54:16;;;;;;;27.02;9.18;;;;;;;;;;5033290;28;20037;-65
2021/03/16 03:56:43;;;;;;;21.25;8.95;;;;;;;;;;5032519;28;20041;-65
2021/03/16 03:59:09;;;;;;;23.08;9.13;;;;;;;;;;5033047;28;20025;-64
2021/03/16 04:01:36;;;;;;;22.50;9.20;;;;;;;;;;5015395;28;20385;-65
2021/03/16 04:04:02;;;;;;;18.65;7.80;;;;;;;;;;5033332;28;20025;-65
2021/03/16 04:06:29;;;;;;;21.40;9.15;;;;;;;;;;5032811;28;20022;-64
2021/03/16 04:08:55;;;;;;;20.50;8.40;;;;;;;;;;5015736;28;20159;-65
2021/03/16 04:11:21;;;;;;;21.45;9.38;;;;;;;;;;5015282;28;20476;-66
2021/03/16 04:13:48;;;;;;;24.67;8.68;;;;;;;;;;5015183;28;20033;-63
2021/03/16 04:16:15;;;;;;;23.17;9.05;;;;;;;;;;5032203;28;20416;-67
2021/03/16 04:18:41;;;;;;;19.40;9.23;;;;;;;;;;5015192;28;20025;-65
2021/03/16 04:21:07;;;;;;;21.92;8.45;;;;;;;;;;5015076;28;20025;-66
2021/03/16 04:23:33;;;;;;;21.95;9.13;;;;;;;;;;5032800;28;20056;-65
2021/03/16 04:25:59;;;;;;;26.15;10.50;;;;;;;;;;5032338;28;20160;-65
2021/03/16 04:28:26;;;;;;;21.42;8.95;;;;;;;;;;5014471;28;20528;-65
2021/03/16 04:30:55;;;;;;;23.33;8.30;;;;;;;;;;5031373;28;20049;-64
2021/03/16 04:33:21;;;;;;;27.80;10.10;;;;;;;;;;5014680;28;20040;-65
2021/03/16 04:35:47;;;;;;;22.23;7.80;;;;;;;;;;5032276;28;20044;-63
2021/03/16 04:38:14;;;;;;;18.52;7.63;;;;;;;;;;5031919;28;20021;-65
2021/03/16 04:40:40;;;;;;;24.55;8.93;;;;;;;;;;5014487;28;20029;-65
2021/03/16 04:43:07;;;;;;;24.25;7.97;;;;;;;;;;5032436;28;20067;-66
2021/03/16 04:45:33;;;;;;;23.02;9.90;;;;;;;;;;5014893;28;20427;-66
2021/03/16 04:47:59;;;;;;;19.30;7.90;;;;;;;;;;5031760;28;20021;-65
2021/03/16 04:50:25;;;;;;;21.40;7.93;;;;;;;;;;5032128;28;20034;-64
2021/03/16 04:52:51;;;;;;;23.70;8.30;;;;;;;;;;5032271;28;20053;-65
2021/03/16 04:55:17;;;;;;;22.90;8.48;;;;;;;;;;5014359;28;20484;-64
2021/03/16 04:57:44;;;;;;;20.30;8.13;;;;;;;;;;5013682;28;20141;-63
2021/03/16 05:00:10;;;;;;;24.60;8.63;;;;;;;;;;5031849;28;20384;-65
2021/03/16 05:02:36;;;;;;;25.83;8.55;;;;;;;;;;5014136;28;20033;-66
2021/03/16 05:05:03;;;;;;;21.48;8.20;;;;;;;;;;5014177;28;20063;-63
2021/03/16 05:07:29;;;;;;;18.90;8.43;;;;;;;;;;5031159;28;20018;-64
2021/03/16 05:09:55;;;;;;;16.65;7.55;;;;;;;;;;5014159;28;20494;-66
2021/03/16 05:12:21;;;;;;;19.05;8.02;;;;;;;;;;5031729;28;20100;-64
2021/03/16 05:14:47;;;;;;;19.98;8.27;;;;;;;;;;5031921;28;20056;-65
2021/03/16 05:17:13;;;;;;;19.00;8.30;;;;;;;;;;5031020;28;20029;-65
2021/03/16 05:19:39;;;;;;;17.58;8.27;;;;;;;;;;5013912;28;20038;-65
2021/03/16 05:22:05;;;;;;;26.23;8.75;;;;;;;;;;5031476;28;20025;-65
2021/03/16 05:24:31;;;;;;;19.38;7.70;;;;;;;;;;5031686;28;20021;-63
2021/03/16 05:26:57;;;;;;;22.05;8.07;;;;;;;;;;5030800;28;20014;-65
2021/03/16 05:29:24;;;;;;;20.27;8.20;;;;;;;;;;5031544;28;20048;-65
2021/03/16 05:31:50;;;;;;;34.38;10.25;;;;;;;;;;5031092;28;20068;-65
2021/03/16 05:34:16;;;;;;;19.05;8.68;;;;;;;;;;5013398;28;20036;-64
2021/03/16 05:36:42;;;;;;;27.33;10.38;;;;;;;;;;5012811;28;20044;-65
2021/03/16 05:39:08;;;;;;;22.42;8.30;;;;;;;;;;5013225;28;20076;-65
2021/03/16 05:41:36;;;;;;;25.77;8.90;;;;;;;;;;5030646;28;20069;-64
2021/03/16 05:44:03;;;;;;;20.45;7.97;;;;;;;;;;5031252;28;20037;-65
2021/03/16 05:46:30;;;;;;;20.38;7.63;;;;;;;;;;5012765;28;20129;-65
2021/03/16 05:49:00;;;;;;;19.52;8.27;;;;;;;;;;5031207;28;20029;-65
2021/03/16 05:51:27;;;;;;;24.85;9.10;;;;;;;;;;5030924;28;20030;-64
2021/03/16 05:53:53;;;;;;;23.77;9.25;;;;;;;;;;5031017;28;20034;-63
2021/03/16 05:56:20;;;;;;;20.15;8.10;;;;;;;;;;5030224;28;20493;-65
2021/03/16 05:58:46;;;;;;;20.58;8.77;;;;;;;;;;5013232;28;20029;-64
2021/03/16 06:01:14;;;;;;;22.77;8.73;;;;;;;;;;5030587;28;20053;-65
2021/03/16 06:03:40;;;;;;;25.42;10.48;;;;;;;;;;5013273;28;20017;-66
2021/03/16 06:06:08;;;;;;;27.33;9.00;;;;;;;;;;5030168;28;20037;-63
2021/03/16 06:08:34;;;;;;;29.20;9.43;;;;;;;;;;5030606;28;20099;-64
2021/03/16 06:11:00;;;;;;;26.90;9.57;;;;;;;;;;5030702;28;20045;-63
2021/03/16 06:13:26;;;;;;;17.58;8.00;;;;;;;;;;5012438;28;20045;-65
2021/03/16 06:15:53;;;;;;;25.80;9.07;;;;;;;;;;5030344;28;20048;-63
2021/03/16 06:18:26;;;;;;;22.38;8.20;;;;;;;;;;5030445;28;20100;-64
2021/03/16 06:21:02;;;;;;;21.83;8.27;;;;;;;;;;5030457;28;20056;-63
2021/03/16 06:23:35;;;;;;;30.67;10.45;;;;;;;;;;5012301;28;20025;-65
2021/03/16 06:26:01;;;;;;;19.33;7.85;;;;;;;;;;5030430;28;20018;-64
2021/03/16 06:28:31;;;;;;;21.40;9.30;;;;;;;;;;5030023;28;20079;-64
2021/03/16 06:30:57;;;;;;;24.95;8.23;;;;;;;;;;5030377;28;20018;-62
2021/03/16 06:33:26;;;;;;;21.10;8.23;;;;;;;;;;5030355;28;20056;-64
2021/03/16 06:36:02;;;;;;;23.58;9.95;;;;;;;;;;5012522;28;20041;-64
2021/03/16 06:38:29;;;;;;;19.38;8.10;;;;;;;;;;5019687;28;20036;-65
2021/03/16 06:40:56;;;;;;;22.60;8.48;;;;;;;;;;5007881;28;20180;-66
2021/03/16 06:43:25;;;;;;;20.15;8.57;;;;;;;;;;5010582;28;20366;-64
2021/03/16 06:45:54;;;;;;;23.15;8.75;;;;;;;;;;5010539;28;20061;-66
2021/03/16 06:48:24;;;;;;;20.67;8.32;;;;;;;;;;4992543;28;20026;-65
2021/03/16 06:50:51;;;;;;;24.55;10.10;;;;;;;;;;5010640;28;20022;-64
2021/03/16 06:53:20;;;;;;;21.13;7.90;;;;;;;;;;4993143;28;20532;-65
2021/03/16 06:55:56;;;;;;;31.52;10.10;;;;;;;;;;5014976;28;20026;-65
2021/03/16 06:58:27;;;;;;;19.67;7.57;;;;;;;;;;5015181;28;20121;-64
2021/03/16 07:01:05;;;;;;;18.52;7.63;;;;;;;;;;5018341;28;20071;-64
2021/03/16 07:03:31;;;;;;;20.30;7.93;;;;;;;;;;5018224;22;20141;-56
2021/03/16 07:06:10;;;;;;;20.67;7.65;;;;;;;;;;4995703;28;20081;-56
2021/03/16 07:08:36;;;;;;;17.13;7.53;;;;;;;;;;4995090;28;20022;-52
2021/03/16 07:11:03;;;;;;;19.38;8.38;;;;;;;;;;4995656;28;20054;-56
2021/03/16 07:13:31;;;;;;;22.58;8.65;;;;;;;;;;4995320;28;20113;-53
2021/03/16 07:15:57;;;;;;;21.03;8.77;;;;;;;;;;4993317;28;20046;-50
2021/03/16 07:18:24;;;;;;;21.30;7.47;;;;;;;;;;4976411;28;20614;-56
2021/03/16 07:20:51;;;;;;;20.00;8.18;;;;;;;;;;4976112;28;20022;-57
2021/03/16 07:23:17;;;;;;;18.20;7.03;;;;;;;;;;4973770;28;20035;-56
2021/03/16 07:25:43;;;;;;;23.10;7.30;;;;;;;;;;4976112;28;20031;-56
2021/03/16 07:28:09;;;;;;;21.92;8.32;;;;;;;;;;4975867;28;20112;-49
2021/03/16 07:30:35;;;;;;;25.58;8.55;;;;;;;;;;4974205;28;20035;-56
2021/03/16 07:33:02;;;;;;;19.67;7.82;;;;;;;;;;4975204;28;20101;-54
2021/03/16 07:35:28;;;;;;;18.10;7.85;;;;;;;;;;4974182;28;20069;-59
2021/03/16 07:37:55;;;;;;;23.67;8.05;;;;;;;;;;4973699;28;20561;-63
2021/03/16 07:40:22;;;;;;;21.05;8.23;;;;;;;;;;4975337;28;20062;-54
2021/03/16 07:42:49;;;;;;;15.57;6.82;;;;;;;;;;4974522;28;20509;-53
2021/03/16 07:45:24;;;;;;;19.55;7.47;;;;;;;;;;4974970;28;20031;-56
2021/03/16 07:47:51;;;;;;;27.55;9.52;;;;;;;;;;4974837;28;20509;-56
2021/03/16 07:50:17;;;;;;;23.33;7.57;;;;;;;;;;4975067;28;20097;-53
2021/03/16 07:52:46;;;;;;;18.80;7.25;;;;;;;;;;4974334;28;20463;-59
2021/03/16 07:55:24;;;;;;;23.13;8.57;;;;;;;;;;4975009;28;20031;-54
2021/03/16 07:57:50;;;;;;;19.17;8.20;;;;;;;;;;4954878;29;20028;-52
2021/03/16 08:00:16;;;;;;;20.50;7.53;;;;;;;;;;4955862;28;20094;-52
2021/03/16 08:02:44;;;;;;;18.63;7.97;;;;;;;;;;4960277;28;20027;-58
2021/03/16 08:05:13;;;;;;;17.60;7.90;;;;;;;;;;4974934;28;20046;-53
2021/03/16 08:07:40;;;;;;;18.85;7.70;;;;;;;;;;4973047;28;20098;-55
2021/03/16 08:10:06;;;;;;;17.95;7.15;;;;;;;;;;4975056;28;20031;-55
2021/03/16 08:12:32;;;;;;;15.38;7.28;;;;;;;;;;4974383;28;20058;-54
2021/03/16 08:15:12;;;;;;;18.45;7.82;;;;;;;;;;4980378;28;20027;-53
2021/03/16 08:17:38;;;;;;;23.05;7.50;;;;;;;;;;4974273;28;20042;-55
2021/03/16 08:20:05;;;;;;;16.85;6.93;;;;;;;;;;4974439;28;20150;-49
2021/03/16 08:22:31;;;;;;;16.58;7.40;;;;;;;;;;4974178;28;20082;-54
2021/03/16 08:25:01;;;;;;;19.25;7.78;;;;;;;;;;4974605;28;20098;-52
2021/03/16 08:27:28;;;;;;;17.58;8.10;;;;;;;;;;4974296;28;20097;-51
2021/03/16 08:29:54;;;;;;;18.75;7.35;;;;;;;;;;4974071;28;20507;-52
2021/03/16 08:32:21;;;;;;;17.55;7.20;;;;;;;;;;4969909;28;20026;-51
2021/03/16 08:34:47;;;;;;;19.73;7.90;;;;;;;;;;4972979;28;20022;-52
2021/03/16 08:37:21;;;;;;;19.40;8.85;;;;;;;;;;4971783;28;20442;-54
2021/03/16 08:39:47;;;;;;;19.88;8.13;;;;;;;;;;4973108;28;20031;-51
2021/03/16 08:42:17;;;;;;;17.27;7.40;;;;;;;;;;4973854;28;20406;-56
2021/03/16 08:44:43;;;;;;;17.27;7.90;;;;;;;;;;4974152;28;20023;-49
2021/03/16 08:47:10;;;;;;;16.80;7.55;;;;;;;;;;4973328;28;20505;-53
2021/03/16 08:49:40;;;;;;;19.83;7.55;;;;;;;;;;4973004;28;20027;-55
2021/03/16 08:52:15;;;;;;;20.13;8.55;;;;;;;;;;4975228;28;20404;-55
2021/03/16 08:54:41;;;;;;;22.70;8.45;;;;;;;;;;4972661;28;20023;-52
2021/03/16 08:57:08;;;;;;;21.42;8.65;;;;;;;;;;4973710;28;20022;-52
2021/03/16 08:59:34;;;;;;;16.77;8.30;;;;;;;;;;4973940;28;20038;-52
2021/03/16 09:02:00;;;;;;;21.10;8.68;;;;;;;;;;4972353;28;20497;-52
2021/03/16 09:04:26;;;;;;;17.15;8.00;;;;;;;;;;4973673;28;20031;-51
2021/03/16 09:06:55;;;;;;;20.58;8.98;;;;;;;;;;4974110;28;20027;-55
2021/03/16 09:09:31;;;;;;;17.75;7.95;;;;;;;;;;4973987;28;20541;-52
2021/03/16 09:11:58;;;;;;;19.10;8.82;;;;;;;;;;4972600;28;20502;-55
2021/03/16 09:14:24;;;;;;;17.50;8.75;;;;;;;;;;4974016;28;20425;-51
2021/03/16 09:16:51;;;;;;;21.45;8.60;;;;;;;;;;4973591;28;20112;-51
2021/03/16 09:19:18;;;;;;;19.95;8.40;;;;;;;;;;4972583;28;20442;-50
2021/03/16 09:21:49;;;;;;;21.52;12.18;;;;;;;;;;4972430;28;20083;-55
2021/03/16 09:24:18;;;;;;;17.80;8.57;;;;;;;;;;4972443;28;20508;-55
2021/03/16 09:26:44;;;;;;;20.92;9.15;;;;;;;;;;4973070;28;20019;-50
2021/03/16 09:29:10;;;;;;;17.77;8.32;;;;;;;;;;4973766;28;20027;-53
2021/03/16 09:31:37;;;;;;;17.77;7.90;;;;;;;;;;4972172;28;20101;-56
2021/03/16 09:34:03;;;;;;;16.33;8.20;;;;;;;;;;4973576;28;20031;-53
2021/03/16 09:36:30;;;;;;;19.95;9.27;;;;;;;;;;4971829;28;20129;-50
2021/03/16 09:38:57;;;;;;;17.58;8.77;;;;;;;;;;4972920;28;20106;-51
2021/03/16 09:41:23;;;;;;;17.20;8.50;;;;;;;;;;4972787;28;20054;-56
2021/03/16 09:43:50;;;;;;;19.08;8.63;;;;;;;;;;4973529;28;20023;-52
2021/03/16 09:46:16;;;;;;;19.55;9.07;;;;;;;;;;4972143;28;20023;-50
2021/03/16 09:48:49;;;;;;;17.77;9.25;;;;;;;;;;4972206;28;20022;-49
2021/03/16 09:51:20;;;;;;;15.68;8.77;;;;;;;;;;4971790;28;20026;-52
2021/03/16 09:53:46;;;;;;;17.90;9.35;;;;;;;;;;4973109;28;20412;-52
2021/03/16 09:56:13;;;;;;;16.10;9.52;;;;;;;;;;4973298;28;20486;-55
2021/03/16 09:58:39;;;;;;;19.33;8.70;;;;;;;;;;4971682;28;20035;-53
2021/03/16 10:01:05;;;;;;;17.73;9.75;;;;;;;;;;4971961;28;20037;-52
2021/03/16 10:03:31;;;;;;;21.05;9.43;;;;;;;;;;4973015;28;20406;-55
2021/03/16 10:06:04;;;;;;;15.68;9.25;;;;;;;;;;4973007;28;20080;-52
2021/03/16 10:08:30;;;;;;;17.90;10.38;;;;;;;;;;4971577;28;20056;-51
2021/03/16 10:10:56;;;;;;;16.25;10.23;;;;;;;;;;4971526;28;20030;-55
2021/03/16 10:13:33;;;;;;;17.02;10.15;;;;;;;;;;4971678;28;20113;-51
2021/03/16 10:16:06;;;;;;;15.95;10.20;;;;;;;;;;4972721;28;20070;-53
2021/03/16 10:18:36;;;;;;;17.45;10.25;;;;;;;;;;4972873;28;20026;-54
2021/03/16 10:21:02;;;;;;;17.67;10.50;;;;;;;;;;4972224;28;20120;-52
2021/03/16 10:23:31;;;;;;;16.48;10.20;;;;;;;;;;4972604;28;20062;-51
2021/03/16 10:26:02;;;;;;;20.58;10.15;;;;;;;;;;4971605;28;20019;-52
2021/03/16 10:28:41;;;;;;;16.63;10.43;;;;;;;;;;4972974;28;20097;-55
2021/03/16 10:31:11;;;;;;;18.83;9.25;;;;;;;;;;4975615;28;20585;-51
2021/03/16 10:33:37;;;;;;;16.73;8.85;;;;;;;;;;4975364;28;20420;-53
2021/03/16 10:36:04;;;;;;;15.70;9.27;;;;;;;;;;4976678;28;20031;-54
2021/03/16 10:38:30;;;;;;;15.98;9.40;;;;;;;;;;4975244;28;20027;-53
2021/03/16 10:40:56;;;;;;;16.17;9.65;;;;;;;;;;4974996;28;20031;-55
2021/03/16 10:43:22;;;;;;;17.75;9.82;;;;;;;;;;4976971;28;20023;-56
2021/03/16 10:45:48;;;;;;;15.55;11.32;;;;;;;;;;4976747;28;20018;-54
2021/03/16 10:48:14;;;;;;;16.77;9.65;;;;;;;;;;4976242;28;20415;-59
2021/03/16 10:50:40;;;;;;;17.05;10.13;;;;;;;;;;4975484;28;20030;-51
2021/03/16 10:53:06;;;;;;;18.05;10.40;;;;;;;;;;4974839;28;20031;-60
2021/03/16 10:55:32;;;;;;;15.75;10.68;;;;;;;;;;4976179;28;20023;-56
2021/03/16 10:57:59;;;;;;;16.35;10.30;;;;;;;;;;4976132;28;20106;-56
2021/03/16 11:00:25;;;;;;;17.10;10.43;;;;;;;;;;4976196;28;20031;-49
2021/03/16 11:02:51;;;;;;;17.63;11.02;;;;;;;;;;4975992;28;20042;-52
2021/03/16 11:05:17;;;;;;;18.08;11.32;;;;;;;;;;4976087;28;20493;-52
2021/03/16 11:07:43;;;;;;;17.85;11.40;;;;;;;;;;4975806;28;20123;-52
2021/03/16 11:10:10;;;;;;;23.10;12.77;;;;;;;;;;4974905;28;20029;-51
2021/03/16 11:12:36;;;;;;;18.08;11.25;;;;;;;;;;4976028;28;20046;-55
2021/03/16 11:15:02;;;;;;;20.65;11.50;;;;;;;;;;4976107;28;20030;-50
2021/03/16 11:17:28;;;;;;;17.13;10.73;;;;;;;;;;4974233;28;20093;-54
2021/03/16 11:19:54;;;;;;;15.98;10.95;;;;;;;;;;4976273;28;20027;-49
2021/03/16 11:22:20;;;;;;;16.75;11.43;;;;;;;;;;4974329;28;20498;-52
2021/03/16 11:24:48;;;;;;;18.10;12.00;;;;;;;;;;4975781;28;20085;-50
2021/03/16 11:27:14;;;;;;;17.77;11.67;;;;;;;;;;4961585;28;20391;-51
2021/03/16 11:29:40;;;;;;;20.50;12.45;;;;;;;;;;4968017;28;20494;-53
2021/03/16 11:32:06;;;;;;;18.75;12.40;;;;;;;;;;4974818;28;20516;-52
2021/03/16 11:34:32;;;;;;;18.75;12.25;;;;;;;;;;4975984;28;20063;-52
2021/03/16 11:36:59;;;;;;;19.25;12.73;;;;;;;;;;4974643;28;20038;-50
2021/03/16 11:39:25;;;;;;;18.88;13.30;;;;;;;;;;4975069;28;20023;-52
2021/03/16 11:41:51;;;;;;;20.30;13.20;;;;;;;;;;4978394;28;20035;-53
2021/03/16 11:44:17;;;;;;;18.08;13.40;;;;;;;;;;4979612;28;20077;-49
2021/03/16 11:46:43;;;;;;;17.55;13.57;;;;;;;;;;4995126;28;20560;-49
2021/03/16 11:49:09;;;;;;;18.45;14.00;;;;;;;;;;4995102;28;20026;-49
2021/03/16 11:51:36;;;;;;;17.95;13.88;;;;;;;;;;4990392;28;20125;-53
2021/03/16 11:54:02;;;;;;;20.52;14.18;;;;;;;;;;4975350;28;20035;-57
2021/03/16 11:56:28;;;;;;;18.35;13.90;;;;;;;;;;4975080;28;20110;-53
2021/03/16 11:58:54;;;;;;;19.17;13.82;;;;;;;;;;4990929;28;20389;-52
2021/03/16 12:01:20;;;;;;;18.33;14.32;;;;;;;;;;4994820;28;20034;-56
2021/03/16 12:03:46;;;;;;;20.33;14.23;;;;;;;;;;4984056;28;20529;-56
2021/03/16 12:06:12;;;;;;;18.63;14.20;;;;;;;;;;4975143;28;20034;-49
2021/03/16 12:08:38;;;;;;;22.00;13.18;;;;;;;;;;4975705;28;20019;-54
2021/03/16 12:11:05;;;;;;;20.13;13.50;;;;;;;;;;4975997;28;20089;-52
2021/03/16 12:13:31;;;;;;;18.30;12.90;;;;;;;;;;4974380;28;20038;-50
2021/03/16 12:15:57;;;;;;;17.38;12.77;;;;;;;;;;4973717;28;20023;-52
2021/03/16 12:18:23;;;;;;;18.52;13.98;;;;;;;;;;4973737;28;20112;-51
2021/03/16 12:20:50;;;;;;;16.83;13.13;;;;;;;;;;4974271;28;20465;-52
2021/03/16 12:23:17;;;;;;;20.02;13.80;;;;;;;;;;4974864;28;20483;-54
2021/03/16 12:25:44;;;;;;;18.77;13.80;;;;;;;;;;4975399;28;20054;-52
2021/03/16 12:28:10;;;;;;;17.43;13.33;;;;;;;;;;4628449;28;9999644;-51
2021/03/16 12:30:36;;;;;;;17.58;13.80;;;;;;;;;;4971437;28;20034;-55
2021/03/16 12:33:03;;;;;;;16.83;13.35;;;;;;;;;;4971541;28;20448;-54
2021/03/16 12:35:29;;;;;;;19.23;14.10;;;;;;;;;;4972316;28;20505;-55
2021/03/16 12:37:55;;;;;;;17.50;14.00;;;;;;;;;;4970216;28;20113;-53
2021/03/16 12:40:21;;;;;;;20.05;14.02;;;11.10;99.90;;;;;;4971165;28;20030;-51
2021/03/16 12:42:48;;;;;;;18.13;13.38;;;;;;;;;;4972646;28;20034;-57
2021/03/16 12:45:14;;;;;;;16.73;13.35;;;;;;;;;;4972460;28;20031;-54
2021/03/16 12:47:40;;;;;;;18.98;13.63;;;;;;;;;;4971276;28;20117;-51
2021/03/16 12:50:07;;;;;;;20.88;14.00;;;;;;;;;;4971261;28;20095;-48
2021/03/16 12:52:33;;;;;;;24.10;14.18;;;;;;;;;;4969155;28;20398;-55
2021/03/16 12:54:59;;;;;;;16.95;14.18;;;;;;;;;;4969683;28;20038;-57
2021/03/16 12:57:25;;;;;;;17.58;13.95;;;;;;;;;;4970741;28;20041;-55
2021/03/16 12:59:51;;;;;;;18.10;14.38;;;;;;;;;;4971122;28;20034;-57
2021/03/16 13:02:17;;;;;;;20.92;14.88;;;;;;;;;;4970992;28;20027;-55
2021/03/16 13:04:43;;;;;;;21.58;14.18;;;;;;;;;;4972163;28;20034;-55
2021/03/16 13:07:09;;;;;;;21.00;13.75;;;;;;;;;;4970435;28;20026;-52
2021/03/16 13:09:35;;;;;;;18.90;13.48;;;;;;;;;;4971046;28;20031;-52
2021/03/16 13:12:01;;;;;;;16.88;13.55;;;;;;;;;;4970601;28;20027;-54
2021/03/16 13:14:28;;;;;;;19.13;13.65;;;;;;;;;;4970168;28;20042;-57
2021/03/16 13:16:54;;;;;;;20.23;13.68;;;;;;;;;;4969790;28;20031;-53
2021/03/16 13:19:21;;;;;;;20.63;13.60;;;;;;;;;;4970897;28;20058;-51
2021/03/16 13:21:47;;;;;;;19.80;13.70;;;;;;;;;;4970473;28;20034;-52
2021/03/16 13:24:14;;;;;;;18.70;13.75;;;;;;;;;;4970513;28;20470;-54
2021/03/16 13:26:40;;;;;;;18.80;13.63;;;;;;;;;;4966858;28;20067;-52
2021/03/16 13:29:06;;;;;;;18.65;14.02;;;;;;;;;;4970293;28;20022;-50
2021/03/16 13:31:32;;;;;;;21.45;14.50;;;;;;;;;;4970734;28;20671;-51
2021/03/16 13:33:58;;;;;;;22.30;14.32;;;;;;;;;;4972067;28;20371;-55
2021/03/16 13:36:25;;;;;;;18.88;14.75;;;;;;;;;;4971626;28;20415;-54
2021/03/16 13:38:51;;;;;;;21.05;14.30;;;;;;;;;;4971174;28;20065;-53
2021/03/16 13:41:17;;;;;;;18.40;13.90;;;;;;;;;;4970719;28;20035;-50
2021/03/16 13:43:43;;;;;;;19.27;13.98;;;;;;;;;;4966095;28;20046;-53
2021/03/16 13:46:10;;;;;;;25.52;14.88;;;;;;;;;;4967009;28;20523;-53
2021/03/16 13:48:36;;;;;;;23.77;13.65;;;;;;;;;;4970692;28;20043;-51
2021/03/16 13:51:01;;;;;;;19.77;14.07;;;;;;;;;;4970193;28;20019;-54
2021/03/16 13:53:28;;;;;;;19.85;13.73;;;;;;;;;;5001889;22;20050;-53
2021/03/16 13:55:54;;;;;;;19.60;14.30;;;;;;;;;;4987104;28;20034;-56
2021/03/16 13:58:21;;;;;;;19.20;14.27;;;;;;;;;;5006827;28;20029;-54
2021/03/16 14:00:47;;;;;;;19.40;13.90;;;;;;;;;;5007345;28;20018;-55
2021/03/16 14:03:13;;;;;;;21.83;14.43;;;;;;;;;;5011767;28;20041;-58
2021/03/16 14:05:39;;;;;;;17.77;14.18;;;;;;;;;;5011254;28;20683;-54
2021/03/16 14:08:05;;;;;;;19.35;13.93;;;;;;;;;;5010320;28;20057;-57
2021/03/16 14:10:31;;;;;;;18.50;14.50;;;;;;;;;;4994069;28;20029;-58
2021/03/16 14:12:57;;;;;;;17.00;13.90;;;;;;;;;;4993849;28;20053;-54
2021/03/16 14:15:24;;;;;;;20.02;14.52;;;;;;;;;;5010571;28;20087;-62
2021/03/16 14:17:50;;;;;;;18.45;14.48;;;15.60;72.90;;;;;;5011125;28;20049;-62
2021/03/16 14:20:16;;;;;;;18.05;14.27;;;;;;;;;;4994163;28;20022;-58
2021/03/16 14:22:48;;;;;;;18.58;14.30;;;;;;;;;;4998877;28;20056;-61